Time;durP1;ratioP1;P1;durP2;ratioP2;P2;SDS_P1;SDS_P2;PMS_P1;PMS_P2;Temp;Humidity;BMP_temperature;BMP_pressure;BME280_temperature;BME280_humidity;BME280_pressure;Samples;Min_cycle;Max_cycle;Signal;HPM_P1;HPM_P2
2022/07/07 00:00:18;;;;;;;5.88;1.92;;;;;;;19.16;75.17;101991.63;4993668;28;20030;-81
2022/07/07 00:02:49;;;;;;;6.85;2.45;;;;;;;19.16;75.21;101997.09;4995722;28;20034;-82
2022/07/07 00:05:14;;;;;;;7.03;2.40;;;;;;;19.19;74.96;101991.22;4997300;28;20053;-83
2022/07/07 00:07:47;;;;;;;13.75;2.60;;;;;;;19.23;74.69;101992.47;4998444;28;20022;-83
2022/07/07 00:10:13;;;;;;;8.63;1.92;;;;;;;19.16;74.46;101986.19;4976837;28;20035;-80
2022/07/07 00:12:39;;;;;;;8.82;2.33;;;;;;;19.14;73.69;101989.13;5004971;28;20033;-82
2022/07/07 00:15:05;;;;;;;9.18;2.67;;;;;;;19.15;73.72;101988.06;5005796;28;20076;-81
2022/07/07 00:17:31;;;;;;;9.20;2.53;;;;;;;19.17;73.42;101996.91;4989625;28;20038;-81
2022/07/07 00:19:59;;;;;;;6.10;1.85;;;;;;;19.15;73.05;101979.06;5002862;28;20033;-81
2022/07/07 00:22:25;;;;;;;6.78;2.10;;;;;;;19.09;73.12;101975.28;5002476;28;20054;-80
2022/07/07 00:24:50;;;;;;;6.80;2.17;;;;;;;19.12;72.99;101979.47;5001836;28;20045;-81
2022/07/07 00:27:16;;;;;;;12.82;2.55;;;;;;;19.15;72.72;101989.97;5010515;28;20037;-81
2022/07/07 00:29:43;;;;;;;5.20;2.20;;;;;;;19.10;71.89;101982.41;5011993;28;20029;-81
2022/07/07 00:32:10;;;;;;;6.22;1.90;;;;;;;19.11;71.44;101969.59;5012146;28;20033;-80
2022/07/07 00:34:36;;;;;;;5.43;2.22;;;;;;;19.08;71.70;101974.41;5005273;28;20052;-81
2022/07/07 00:37:05;;;;;;;7.07;2.17;;;;;;;18.99;71.21;101959.34;4986827;28;20022;-81
2022/07/07 00:39:30;;;;;;;4.75;1.85;;;;;;;18.94;71.20;101959.13;4999236;28;20434;-77
2022/07/07 00:41:56;;;;;;;6.97;2.13;;;;;;;18.93;71.63;101962.91;4980881;28;20050;-79
2022/07/07 00:44:22;;;;;;;7.15;2.55;;;;;;;18.83;71.60;101965.22;4979429;28;20049;-79
2022/07/07 00:46:50;;;;;;;5.93;2.05;;;;;;;18.83;71.29;101974.22;4998637;28;20032;-80
2022/07/07 00:49:17;;;;;;;5.78;1.80;;;;;;;18.79;70.88;101966.66;4997799;28;20077;-79
2022/07/07 00:51:43;;;;;;;2.25;1.70;;;;;;;18.70;71.14;101959.72;4998880;28;20057;-79
2022/07/07 00:54:10;;;;;;;10.35;2.15;;;;;;;18.69;71.49;101967.03;4983300;28;20027;-78
2022/07/07 00:56:42;;;;;;;10.52;2.10;;;;;;;18.64;72.44;101970.41;4999253;28;20038;-80
2022/07/07 00:59:08;;;;;;;6.18;2.28;;;;;;;18.53;72.76;101953.81;4996016;28;20041;-80
2022/07/07 01:01:39;;;;;;;8.05;2.15;;;;;;;18.54;73.03;101959.06;5000055;28;20026;-80
2022/07/07 01:04:12;;;;;;;9.65;2.05;;;;;;;18.45;73.38;101954.84;5005719;28;20058;-80
2022/07/07 01:06:39;;;;;;;9.60;2.00;;;;;;;18.53;73.05;101960.09;5003253;28;20042;-81
2022/07/07 01:09:05;;;;;;;5.73;1.70;;;;;;;18.52;72.58;101957.59;4982545;28;20446;-81
2022/07/07 01:11:52;;;;;;;7.35;1.60;;;;;;;18.52;73.13;101969.34;4978268;28;20090;-81
2022/07/07 01:14:18;;;;;;;6.28;1.75;;;;;;;18.48;73.43;101962.59;4996582;28;20026;-81
2022/07/07 01:16:44;;;;;;;5.90;1.73;;;;;;;18.49;73.15;101967.03;4992840;28;20045;-81
2022/07/07 01:19:10;;;;;;;7.80;1.75;;;;;;;18.50;73.64;101963.25;4975671;28;20493;-79
2022/07/07 01:21:46;;;;;;;10.77;1.77;;;;;;;18.49;74.30;101960.75;4975680;28;20034;-81
2022/07/07 01:24:12;;;;;;;9.65;2.13;;;;;;;18.44;75.89;101950.44;4991620;28;20072;-81
2022/07/07 01:26:39;;;;;;;2.53;1.75;;;;;;;18.35;76.31;101941.66;4960874;28;20421;-80
2022/07/07 01:29:04;;;;;;;5.65;1.98;;;;;;;18.18;78.10;101962.97;4991524;28;20482;-80
2022/07/07 01:31:29;;;;;;;4.00;2.13;;;;;;;18.09;78.86;101947.88;4991741;28;20049;-80
2022/07/07 01:33:55;;;;;;;4.50;2.00;;;;;;;17.99;80.51;101941.97;4995357;28;20084;-80
2022/07/07 01:36:20;;;;;;;4.80;2.00;;;;;;;17.94;81.51;101947.19;5012079;28;20026;-79
2022/07/07 01:38:46;;;;;;;6.82;1.92;;;;;;;17.78;80.94;101951.91;5011631;28;20026;-77
2022/07/07 01:41:11;;;;;;;5.70;2.15;;;;;;;17.82;81.66;101956.97;5006930;28;20418;-79
2022/07/07 01:43:36;;;;;;;9.55;2.40;;;;;;;17.71;82.80;101948.28;4995671;28;20034;-78
2022/07/07 01:46:02;;;;;;;8.73;2.10;;;;;;;17.58;83.04;101944.66;4993452;28;20081;-78
2022/07/07 01:48:27;;;;;;;5.50;2.08;;;;;;;17.49;83.18;101942.13;4992208;28;20057;-77
2022/07/07 01:50:53;;;;;;;8.32;2.53;;;;;;;17.36;84.73;101946.66;4994274;28;20025;-78
2022/07/07 01:53:18;;;;;;;9.43;2.13;;;;;;;17.27;86.08;101946.81;4994425;28;20147;-79
2022/07/07 01:55:44;;;;;;;9.32;2.10;;;;;;;17.27;86.90;101944.09;4965000;28;20105;-78
2022/07/07 01:58:09;;;;;;;7.40;2.45;;;;;;;17.23;87.79;101931.91;4989375;28;20042;-80
2022/07/07 02:00:35;;;;;;;7.80;2.30;;;;;;;17.24;87.93;101930.03;4997864;28;20536;-79
2022/07/07 02:03:01;;;;;;;8.38;2.35;;;;;;;17.34;87.80;101928.63;4994294;28;20030;-83
2022/07/07 02:05:26;;;;;;;12.43;2.47;;;;;;;17.38;87.45;101933.66;4993846;28;20486;-82
2022/07/07 02:07:52;;;;;;;9.77;2.28;;;;;;;17.41;87.38;101928.69;4981448;28;20081;-80
2022/07/07 02:11:12;;;;;;;7.38;2.17;;;;;;;17.49;87.36;101941.28;4997250;28;20045;-81
2022/07/07 02:13:04;;;;;;;6.43;1.95;;;;;;;17.49;84.84;101919.50;4980237;28;20043;-82
2022/07/07 02:15:30;;;;;;;6.53;2.20;;;;;;;17.50;84.00;101921.19;4979519;28;20102;-81
2022/07/07 02:17:56;;;;;;;6.20;2.28;;;;;;;17.43;84.23;101931.19;4998406;28;20057;-83
2022/07/07 02:20:22;;;;;;;5.20;1.90;;;;;;;17.33;84.45;101920.69;4979073;28;20046;-82
2022/07/07 02:22:47;;;;;;;7.60;2.25;;;;;;;17.37;85.05;101926.56;4975616;28;20057;-83
2022/07/07 02:25:13;;;;;;;7.43;1.95;;;;;;;17.35;85.37;101940.34;4979409;28;20041;-82
2022/07/07 02:27:38;;;;;;;8.45;2.90;;;;;;;17.38;85.66;101944.53;4982598;28;20038;-80
2022/07/07 02:30:04;;;;;;;7.32;2.00;;;;;;;17.35;84.65;101918.56;5000918;28;20027;-80
2022/07/07 02:32:29;;;;;;;10.73;2.30;;;;;;;17.41;84.11;101922.41;5000350;28;20094;-80
2022/07/07 02:34:58;;;;;;;9.93;2.63;;;;;;;17.43;84.57;101909.41;4998233;28;20082;-80
2022/07/07 02:37:26;;;;;;;9.07;2.30;;;;;;;17.46;84.52;101928.91;4998155;28;20486;-84
2022/07/07 02:39:51;;;;;;;;;;;;;;;17.49;85.42;101936.69;4999636;28;20038;-80
2022/07/07 02:42:17;;;;;;;12.88;1.98;;;;;;;17.39;84.24;101938.09;5001378;28;19914;-80
2022/07/07 02:44:46;;;;;;;16.40;1.83;;;;;;;17.29;83.78;101944.72;5000968;28;20084;-80
2022/07/07 02:47:11;;;;;;;17.73;1.80;;;;;;;17.16;84.42;101952.78;5007552;28;20034;-79
2022/07/07 02:49:36;;;;;;;13.38;2.38;;;;;;;17.02;85.21;101953.75;5011393;28;20049;-80
2022/07/07 02:52:05;;;;;;;11.63;2.42;;;;;;;16.86;86.05;101939.38;4991717;28;20073;-81
2022/07/07 02:54:30;;;;;;;15.70;2.00;;;;;;;16.79;86.54;101941.22;5003725;28;20043;-81
2022/07/07 02:56:56;;;;;;;14.10;2.40;;;;;;;16.79;87.52;101938.50;4991176;28;20022;-81
2022/07/07 02:59:22;;;;;;;9.43;1.98;;;;;;;16.73;88.26;101936.53;4988104;28;20030;-82
2022/07/07 03:01:48;;;;;;;7.60;2.05;;;;;;;16.70;89.03;101947.81;4985751;28;20062;-80
2022/07/07 03:04:13;;;;;;;7.63;1.80;;;;;;;16.59;89.69;101949.16;5001656;28;20049;-80
2022/07/07 03:06:38;;;;;;;19.45;2.28;;;;;;;16.58;89.77;101949.34;5012350;28;20052;-80
2022/07/07 03:09:07;;;;;;;12.32;2.35;;;;;;;16.60;90.46;101950.00;5009626;28;20034;-80
2022/07/07 03:11:33;;;;;;;14.18;1.92;;;;;;;16.59;90.01;101962.75;4989921;28;20025;-80
2022/07/07 03:13:58;;;;;;;11.38;2.53;;;;;;;16.56;89.56;101956.84;5006877;28;20058;-81
2022/07/07 03:16:24;;;;;;;13.38;2.22;;;;;;;16.59;89.78;101962.75;5003984;28;20038;-80
2022/07/07 03:18:49;;;;;;;15.75;2.25;;;;;;;16.58;89.48;101952.06;5002247;28;20046;-80
2022/07/07 03:21:14;;;;;;;9.38;1.80;;;;;;;16.56;88.90;101954.13;5002050;28;20030;-79
2022/07/07 03:23:40;;;;;;;16.67;1.70;;;;;;;16.54;88.83;101950.78;5000520;28;20038;-80
2022/07/07 03:26:05;;;;;;;12.80;2.13;;;;;;;16.50;88.62;101942.16;5002111;28;20054;-80
2022/07/07 03:28:32;;;;;;;14.93;2.83;;;;;;;16.50;88.77;101949.47;4985917;28;20133;-80
2022/07/07 03:30:58;;;;;;;12.75;2.05;;;;;;;16.58;89.49;101954.78;5002797;28;20019;-80
2022/07/07 03:33:24;;;;;;;17.85;2.20;;;;;;;16.53;89.70;101952.66;4985583;28;20084;-79
2022/07/07 03:35:49;;;;;;;12.30;2.58;;;;;;;16.51;89.59;101952.03;5002346;28;20138;-80
2022/07/07 03:38:14;;;;;;;16.92;2.40;;;;;;;16.51;89.92;101953.88;5005552;28;20014;-79
2022/07/07 03:40:40;;;;;;;24.27;2.88;;;;;;;16.56;90.04;101962.28;5005007;28;20052;-80
2022/07/07 03:43:05;;;;;;;13.27;2.38;;;;;;;16.54;90.08;101961.66;4998725;28;20030;-80
2022/07/07 03:45:31;;;;;;;16.38;2.17;;;;;;;16.56;90.11;101957.72;4994133;28;20026;-81
2022/07/07 03:47:56;;;;;;;13.50;2.58;;;;;;;16.57;89.58;101961.28;4993756;28;20057;-82
2022/07/07 03:50:22;;;;;;;23.40;2.55;;;;;;;16.54;89.48;101961.66;4984606;28;20026;-81
2022/07/07 03:52:48;;;;;;;24.27;3.28;;;;;;;16.56;88.61;101967.72;4998026;28;20041;-78
2022/07/07 03:55:13;;;;;;;19.90;2.42;;;;;;;16.63;88.07;101965.91;4998300;28;20022;-79
2022/07/07 03:57:39;;;;;;;11.07;1.88;;;;;;;16.60;87.37;101964.44;4995022;28;20034;-80
2022/07/07 04:00:05;;;;;;;11.95;1.77;;;;;;;16.63;84.75;101968.63;4980732;28;20367;-81
2022/07/07 04:02:31;;;;;;;14.88;1.52;;;;;;;16.66;84.04;101979.94;4998476;28;20037;-78
2022/07/07 04:04:56;;;;;;;12.77;2.03;;;;;;;16.69;83.46;101981.44;4995761;28;20022;-81
2022/07/07 04:07:22;;;;;;;12.52;1.55;;;;;;;16.72;82.01;101991.09;4996440;28;20034;-81
2022/07/07 04:09:47;;;;;;;11.70;1.63;;;;;;;16.66;81.77;101984.56;5000177;28;20028;-80
2022/07/07 04:12:13;;;;;;;10.65;1.75;;;;;;;16.62;81.34;101986.00;4994504;28;20027;-79
2022/07/07 04:14:38;;;;;;;13.88;2.00;;;;;;;16.58;81.46;101990.13;4979079;28;20089;-79
2022/07/07 04:17:04;;;;;;;14.98;1.83;;;;;;;16.55;80.42;101987.78;4996503;28;20128;-78
2022/07/07 04:19:29;;;;;;;32.95;2.67;;;;;;;16.55;80.86;101994.06;4995157;28;20099;-78
2022/07/07 04:21:55;;;;;;;13.55;2.38;;;;;;;16.53;79.42;101990.69;4994264;28;20030;-79
2022/07/07 04:24:20;;;;;;;17.67;2.15;;;;;;;16.54;79.49;101997.00;4993489;28;20045;-79
2022/07/07 04:26:46;;;;;;;14.02;1.95;;;;;;;16.54;79.10;101995.09;4992396;28;20534;-79
2022/07/07 04:29:11;;;;;;;17.58;2.10;;;;;;;16.55;78.37;102004.09;4992014;28;20107;-79
2022/07/07 04:31:37;;;;;;;10.73;1.88;;;;;;;16.59;77.34;102010.84;4994120;28;20092;-78
2022/07/07 04:34:05;;;;;;;16.02;2.63;;;;;;;16.55;77.50;102009.53;4999781;28;20047;-78
2022/07/07 04:36:31;;;;;;;10.68;1.60;;;;;;;16.51;77.27;102005.50;4994251;28;20094;-80
2022/07/07 04:38:56;;;;;;;17.85;2.00;;;;;;;16.56;77.29;102005.78;5001480;28;20026;-79
2022/07/07 04:41:22;;;;;;;14.35;2.47;;;;;;;16.54;77.21;102019.56;4997909;28;20486;-79
2022/07/07 04:43:47;;;;;;;22.90;2.38;;;;;;;16.56;77.77;102022.06;4994204;28;20375;-79
2022/07/07 04:46:13;;;;;;;15.93;2.05;;;;;;;16.54;77.70;102024.16;4993738;28;20038;-80
2022/07/07 04:48:38;;;;;;;17.40;2.53;;;;;;;16.59;77.98;102021.72;4976475;28;20387;-79
2022/07/07 04:51:04;;;;;;;23.15;2.65;;;;;;;16.60;77.54;102021.50;4993923;28;20042;-79
2022/07/07 04:53:29;;;;;;;24.50;2.33;;;;;;;16.62;77.42;102018.59;4993697;28;20609;-79
2022/07/07 04:55:55;;;;;;;17.13;2.10;;;;;;;16.62;76.71;102043.06;4994346;28;20474;-80
2022/07/07 04:58:20;;;;;;;15.68;2.25;;;;;;;16.65;76.40;102035.34;4993075;28;20162;-80
2022/07/07 05:00:45;;;;;;;26.20;3.03;;;;;;;16.69;76.71;102035.81;4992953;28;20092;-76
2022/07/07 05:03:11;;;;;;;11.32;2.05;;;;;;;16.69;76.29;102052.13;4990562;28;20085;-82
2022/07/07 05:05:36;;;;;;;19.80;2.28;;;;;;;16.72;76.38;102049.03;4993745;28;20046;-78
2022/07/07 05:08:02;;;;;;;19.05;2.97;;;;;;;16.67;76.26;102051.50;4976548;28;20497;-81
2022/07/07 05:10:27;;;;;;;13.98;2.00;;;;;;;16.65;75.88;102042.69;4993045;28;20470;-80
2022/07/07 05:12:52;;;;;;;18.67;2.50;;;;;;;16.67;75.96;102051.50;4995654;28;20023;-81
2022/07/07 05:15:18;;;;;;;20.27;2.17;;;;;;;16.62;75.71;102059.38;4996278;28;20022;-78
2022/07/07 05:17:43;;;;;;;23.63;2.30;;;;;;;16.60;74.75;102067.72;5000586;28;20049;-79
2022/07/07 05:20:09;;;;;;;13.98;2.28;;;;;;;16.62;75.16;102056.66;4974334;28;20035;-79
2022/07/07 05:22:34;;;;;;;7.22;1.77;;;;;;;16.67;74.54;102074.06;4982345;28;20037;-79
2022/07/07 05:25:00;;;;;;;19.48;2.70;;;;;;;16.81;74.29;102083.22;4996456;28;20030;-80
2022/07/07 05:27:26;;;;;;;15.90;2.13;;;;;;;16.85;73.84;102081.81;4994796;28;20141;-79
2022/07/07 05:29:51;;;;;;;23.92;2.67;;;;;;;16.86;74.66;102086.22;4978034;28;20084;-78
2022/07/07 05:32:17;;;;;;;17.52;3.10;;;;;;;16.95;74.70;102080.66;5008979;28;20025;-79
2022/07/07 05:34:42;;;;;;;15.50;2.33;;;;;;;17.04;74.78;102085.78;4993533;28;20051;-79
2022/07/07 05:37:08;;;;;;;15.70;2.22;;;;;;;17.13;74.99;102085.63;4997531;28;20034;-80
2022/07/07 05:39:33;;;;;;;22.77;3.05;;;;;;;17.27;74.59;102091.03;4995412;28;20106;-79
2022/07/07 05:41:59;;;;;;;14.00;2.30;;;;;;;17.27;73.74;102095.59;5001606;28;20038;-81
2022/07/07 05:44:24;;;;;;;16.23;2.22;;;;;;;17.30;73.76;102089.78;5000949;28;20078;-80
2022/07/07 05:46:49;;;;;;;17.67;2.35;;;;;;;17.34;73.13;102097.34;4997534;28;20034;-78
2022/07/07 05:49:15;;;;;;;23.00;3.00;;;;;;;17.27;72.75;102101.91;4993668;28;20030;-81
2022/07/07 05:51:40;;;;;;;17.52;2.65;;;;;;;17.28;72.84;102106.28;4996203;28;20027;-78
2022/07/07 05:54:06;;;;;;;14.07;2.88;;;;;;;17.25;72.82;102114.03;4982080;28;20454;-77
2022/07/07 05:56:31;;;;;;;18.85;2.33;;;;;;;17.22;73.22;102123.41;4993250;28;20037;-77
2022/07/07 05:58:57;;;;;;;18.95;1.95;;;;;;;17.19;73.74;102122.94;4997621;28;20030;-78
2022/07/07 06:01:22;;;;;;;12.85;2.00;;;;;;;16.99;75.76;102125.47;4999506;28;20038;-79
2022/07/07 06:03:47;;;;;;;15.48;2.47;;;;;;;16.84;76.93;102133.66;5004747;28;20033;-79
2022/07/07 06:06:13;;;;;;;24.45;2.58;;;;;;;16.74;77.95;102141.25;5001885;28;20502;-80
2022/07/07 06:08:38;;;;;;;18.52;2.72;;;;;;;16.68;79.00;102140.97;4995112;28;20054;-80
2022/07/07 06:11:03;;;;;;;23.33;2.58;;;;;;;16.70;80.29;102138.09;4977913;28;20065;-78
2022/07/07 06:13:29;;;;;;;20.60;2.38;;;;;;;16.72;80.84;102146.03;4996207;28;20042;-80
2022/07/07 06:15:54;;;;;;;15.57;2.55;;;;;;;16.82;80.04;102139.28;4993703;28;20023;-79
2022/07/07 06:18:20;;;;;;;17.52;2.35;;;;;;;16.91;79.39;102144.63;4973598;28;20081;-77
2022/07/07 06:20:45;;;;;;;16.13;2.35;;;;;;;17.21;78.93;102150.78;4976364;28;20037;-78
2022/07/07 06:23:10;;;;;;;15.52;2.70;;;;;;;17.62;77.80;102141.97;4975558;28;20065;-76
2022/07/07 06:25:36;;;;;;;14.35;2.42;;;;;;;17.91;76.08;102160.03;4975639;28;20031;-78
2022/07/07 06:28:01;;;;;;;18.33;2.95;;;;;;;17.93;75.23;102150.63;4973070;28;20027;-77
2022/07/07 06:30:26;;;;;;;23.98;2.63;;;;;;;17.72;75.58;102156.06;4993060;28;20493;-78
2022/07/07 06:32:52;;;;;;;17.52;2.85;;;;;;;17.61;75.56;102152.00;4993030;28;20037;-78
2022/07/07 06:35:20;;;;;;;12.00;2.22;;;;;;;17.46;75.10;102159.44;4993044;28;20069;-79
2022/07/07 06:37:46;;;;;;;21.48;2.40;;;;;;;17.60;75.19;102153.03;4994439;28;20029;-80
2022/07/07 06:40:12;;;;;;;11.38;2.38;;;;;;;17.81;72.98;102163.09;4998486;28;20355;-80
2022/07/07 06:42:37;;;;;;;16.38;2.35;;;;;;;17.96;71.52;102168.44;4994611;28;20038;-75
2022/07/07 06:45:04;;;;;;;10.55;1.48;;;;;;;18.16;70.83;102163.94;4994372;28;20038;-79
2022/07/07 06:47:29;;;;;;;13.13;1.67;;;;;;;18.50;69.91;102167.72;4996103;28;20113;-78
2022/07/07 06:49:55;;;;;;;12.52;2.50;;;;;;;18.80;68.66;102171.03;4993463;28;20136;-77
2022/07/07 06:52:21;;;;;;;8.48;1.75;;;;;;;18.76;66.32;102177.09;4994141;28;20374;-77
2022/07/07 06:54:46;;;;;;;12.60;1.90;;;;;;;18.70;66.62;102186.06;4993668;28;20084;-76
2022/07/07 06:57:11;;;;;;;17.17;2.65;;;;;;;18.49;67.22;102197.91;4994232;28;20033;-77
2022/07/07 06:59:37;;;;;;;12.80;2.42;;;;;;;18.25;68.84;102188.34;4992411;28;20109;-76
2022/07/07 07:02:02;;;;;;;18.67;2.10;;;;;;;17.95;69.48;102183.94;4992989;28;20022;-77
2022/07/07 07:04:28;;;;;;;15.30;2.28;;;;;;;17.83;69.94;102179.25;4991637;28;20110;-76
2022/07/07 07:06:53;;;;;;;11.93;1.80;;;;;;;17.93;69.49;102188.75;4992695;28;20042;-75
2022/07/07 07:09:19;;;;;;;7.95;1.42;;;;;;;18.04;68.93;102183.81;4980262;28;20053;-75
2022/07/07 07:11:45;;;;;;;12.18;1.77;;;;;;;18.57;67.08;102190.41;4976478;28;20029;-78
2022/07/07 07:14:11;;;;;;;18.70;1.88;;;;;;;18.80;65.53;102195.59;4996791;28;20053;-79
2022/07/07 07:16:36;;;;;;;16.25;1.88;;;;;;;18.76;65.71;102198.91;4996128;28;20022;-78
2022/07/07 07:19:03;;;;;;;15.15;1.70;;;;;;;18.52;66.23;102198.34;4994271;28;20554;-79
2022/07/07 07:21:28;;;;;;;10.65;2.03;;;;;;;18.09;70.26;102205.81;4994234;28;20054;-77
2022/07/07 07:23:53;;;;;;;4.70;0.88;;;;;;;17.70;71.78;102199.84;4994354;28;20034;-80
2022/07/07 07:26:19;;;;;;;5.00;1.08;;;;;;;17.52;74.02;102207.63;4994126;28;20034;-78
2022/07/07 07:28:44;;;;;;;9.60;1.67;;;;;;;17.40;74.12;102211.91;4986682;28;20334;-76
2022/07/07 07:31:09;;;;;;;8.23;1.30;;;;;;;17.54;73.46;102206.41;4997857;28;20030;-79
2022/07/07 07:33:38;;;;;;;4.75;1.10;;;;;;;17.83;73.12;102217.38;4999839;28;20026;-78
2022/07/07 07:36:07;;;;;;;12.13;1.80;;;;;;;18.03;71.64;102210.19;5003748;28;20030;-81
2022/07/07 07:38:35;;;;;;;10.20;1.75;;;;;;;18.14;70.90;102233.31;4999547;28;20042;-82
2022/07/07 07:41:02;;;;;;;13.73;2.15;;;;;;;18.19;70.49;102226.25;4985504;28;20113;-79
2022/07/07 07:43:28;;;;;;;8.30;1.60;;;;;;;18.08;71.40;102224.06;4997749;28;20073;-80
2022/07/07 07:45:53;;;;;;;12.02;1.63;;;;;;;18.03;71.13;102223.81;5002661;28;20030;-78
2022/07/07 07:48:19;;;;;;;13.95;2.13;;;;;;;18.09;70.95;102231.19;5001666;28;20060;-79
2022/07/07 07:50:44;;;;;;;9.80;2.30;;;;;;;18.10;71.18;102235.59;5001752;28;20026;-78
2022/07/07 07:53:10;;;;;;;9.63;1.67;;;;;;;18.02;72.78;102235.75;4998268;28;20053;-79
2022/07/07 07:55:35;;;;;;;12.32;1.75;;;;;;;17.91;75.50;102237.13;4995714;28;20113;-79
2022/07/07 07:58:01;;;;;;;10.65;1.75;;;;;;;17.78;77.41;102248.72;4994435;28;20106;-78
2022/07/07 08:00:26;;;;;;;12.50;1.80;;;;;;;17.72;78.91;102244.06;4995160;28;20071;-77
2022/07/07 08:02:52;;;;;;;12.98;1.60;;;;;;;17.61;77.60;102258.16;4994307;28;20037;-78
2022/07/07 08:05:18;;;;;;;7.57;0.90;;;;;;;17.52;74.35;102251.19;4996607;28;20515;-77
2022/07/07 08:07:44;;;;;;;6.22;1.08;;;;;;;17.73;74.34;102248.44;4994637;28;20026;-76
2022/07/07 08:10:11;;;;;;;12.82;1.90;;;;;;;17.97;73.09;102238.22;4992025;28;20069;-79
2022/07/07 08:12:37;;;;;;;14.43;1.63;;;;;;;18.23;73.34;102242.19;4991470;28;20033;-78
2022/07/07 08:15:04;;;;;;;10.20;1.70;;;;;;;18.24;73.10;102238.41;4992355;28;20494;-75
2022/07/07 08:17:29;;;;;;;14.05;1.85;;;;;;;18.24;72.49;102254.78;4974768;28;20034;-78
2022/07/07 08:19:54;;;;;;;12.60;1.92;;;;;;;18.19;74.02;102258.94;4974745;28;20050;-77
2022/07/07 08:22:20;;;;;;;9.82;1.33;;;;;;;17.99;74.72;102263.38;4992585;28;20035;-78
2022/07/07 08:24:45;;;;;;;10.32;2.13;;;;;;;18.19;75.63;102258.94;4997172;28;20027;-79
2022/07/07 08:27:11;;;;;;;10.30;1.50;;;;;;;18.65;73.94;102261.13;4995396;28;20701;-76
2022/07/07 08:29:38;;;;;;;12.35;1.73;;;;;;;19.91;71.13;102266.19;4993660;28;20477;-78
2022/07/07 08:32:05;;;;;;;;;;;;;;;20.49;67.86;102271.00;4994494;28;20482;-78
2022/07/07 08:34:30;;;;;;;17.08;1.70;;;;;;;20.75;64.16;102272.88;4995517;28;19924;-78
2022/07/07 08:36:56;;;;;;;10.02;1.65;;;;;;;21.03;63.91;102266.22;4995162;28;20038;-77
2022/07/07 08:39:21;;;;;;;6.18;1.60;;;;;;;21.65;59.94;102263.81;4994773;28;20042;-79
2022/07/07 08:41:47;;;;;;;20.77;2.50;;;;;;;22.21;58.19;102278.59;4977902;28;20033;-78
2022/07/07 08:44:12;;;;;;;11.00;1.92;;;;;;;22.27;57.68;102274.94;4991691;28;20022;-83
2022/07/07 08:46:38;;;;;;;14.48;2.53;;;;;;;21.84;58.53;102290.22;4992261;28;20032;-80
2022/07/07 08:49:03;;;;;;;16.83;2.13;;;;;;;21.44;59.75;102300.63;4973580;28;20027;-78
2022/07/07 08:51:28;;;;;;;10.05;1.83;;;;;;;20.90;63.52;102301.84;4974448;28;20114;-79
2022/07/07 08:53:54;;;;;;;12.32;1.70;;;;;;;20.36;64.87;102303.84;4981245;28;20421;-79
2022/07/07 08:56:20;;;;;;;10.70;1.98;;;;;;;19.85;65.87;102315.38;4993482;28;20045;-80
2022/07/07 08:58:46;;;;;;;13.10;2.08;;;;;;;19.61;66.80;102303.94;4981491;28;20047;-78
2022/07/07 09:01:11;;;;;;;11.35;2.00;;;;;;;19.40;66.76;102309.56;4973078;28;20371;-78
2022/07/07 09:03:37;;;;;;;13.10;1.80;;;;;;;19.26;66.97;102308.66;4977587;28;20391;-79
2022/07/07 09:06:03;;;;;;;11.55;2.08;;;;;;;19.14;68.37;102315.75;4976246;28;20038;-79
2022/07/07 09:08:30;;;;;;;11.70;2.17;;;;;;;18.86;68.49;102319.41;4982050;28;20035;-79
2022/07/07 09:10:56;;;;;;;;;;;;;;;18.97;68.56;102321.56;5000668;28;20026;-77
2022/07/07 09:13:24;;;;;;;19.10;2.25;;;;;;;19.11;67.60;102321.63;4983489;28;20033;-75
2022/07/07 09:15:50;;;;;;;14.43;2.42;;;;;;;19.14;67.18;102329.41;4975053;28;20081;-77
2022/07/07 09:18:47;;;;;;;13.38;2.25;;;;;;;19.13;66.60;102335.91;4975924;28;20042;-79
2022/07/07 09:21:30;;;;;;;14.63;2.20;;;;;;;19.20;66.76;102331.34;4970849;28;20042;-78
2022/07/07 09:24:00;;;;;;;11.13;1.55;;;;;;;19.21;66.48;102333.00;4993200;28;20057;-77
2022/07/07 09:26:43;;;;;;;15.73;2.25;;;;;;;19.24;65.87;102344.34;4989274;28;20458;-77
2022/07/07 09:29:20;;;;;;;18.85;2.40;;;;;;;19.08;66.34;102340.06;4995470;28;20528;-76
2022/07/07 09:31:57;;;;;;;15.68;2.58;;;;;;;18.81;66.87;102352.72;5001562;28;20027;-77
2022/07/07 09:34:33;;;;;;;17.73;2.60;;;;;;;18.92;67.30;102362.22;4999732;28;20133;-78
2022/07/07 09:39:51;;;;;;;17.45;2.65;;;;;;;19.10;66.67;102358.97;4979490;28;20061;-79
2022/07/07 09:42:20;;;;;;;16.80;2.42;;;;;;;19.20;66.31;102370.38;4992927;28;20049;-79
2022/07/07 09:44:54;;;;;;;11.52;2.00;;;;;;;19.14;65.62;102378.50;4978774;28;20026;-79
2022/07/07 09:47:20;;;;;;;11.43;1.52;;;;;;;18.93;66.28;102377.56;4977146;28;20098;-78
2022/07/07 09:50:07;;;;;;;7.65;1.52;;;;;;;19.11;66.19;102385.22;4994615;28;20114;-80
2022/07/07 09:52:34;;;;;;;16.05;1.60;;;;;;;19.02;68.58;102395.47;4995437;28;20084;-77
2022/07/07 09:55:01;;;;;;;7.40;1.10;;;;;;;18.92;69.46;102392.25;4994744;28;20029;-78
2022/07/07 09:57:27;;;;;;;7.03;1.15;;;;;;;19.05;68.59;102402.41;4996322;28;20113;-80
2022/07/07 09:59:53;;;;;;;10.07;2.03;;;;;;;19.45;67.15;102400.72;4995405;28;20378;-80
2022/07/07 10:02:29;;;;;;;13.00;1.95;;;;;;;20.32;65.30;102412.78;4989141;28;20418;-78
2022/07/07 10:05:00;;;;;;;14.37;2.03;;;;;;;20.83;63.59;102398.50;4976413;28;20039;-77
2022/07/07 10:07:31;;;;;;;21.77;2.70;;;;;;;21.31;59.63;102399.25;4973976;28;20101;-78
2022/07/07 10:10:00;;;;;;;17.67;2.22;;;;;;;21.89;57.99;102410.19;4973044;28;20027;-78
2022/07/07 10:12:27;;;;;;;12.00;1.90;;;;;;;21.51;57.49;102430.16;4980278;28;20046;-79
2022/07/07 10:15:04;;;;;;;10.25;1.48;;;;;;;21.03;61.01;102435.94;4992287;28;20473;-78
2022/07/07 10:17:30;;;;;;;12.95;1.67;;;;;;;20.46;65.73;102453.81;4994057;28;20033;-77
2022/07/07 10:19:57;;;;;;;6.88;1.25;;;;;;;19.77;68.26;102444.78;4983444;28;20027;-78
2022/07/07 10:22:27;;;;;;;4.57;1.08;;;;;;;19.16;71.21;102441.94;4975183;28;20434;-78
2022/07/07 10:24:53;;;;;;;4.85;0.90;;;;;;;18.93;71.89;102451.25;4979966;28;20026;-81
2022/07/07 10:27:21;;;;;;;7.05;1.38;;;;;;;19.20;71.57;102446.81;4990144;28;20026;-78
2022/07/07 10:29:50;;;;;;;5.57;1.02;;;;;;;19.43;69.74;102446.53;4988506;28;20022;-79
2022/07/07 10:32:18;;;;;;;10.55;1.38;;;;;;;19.60;68.07;102457.09;5010086;28;20030;-79
2022/07/07 10:34:48;;;;;;;8.02;1.33;;;;;;;20.03;67.98;102463.19;5005656;28;20073;-78
2022/07/07 10:37:14;;;;;;;10.23;1.40;;;;;;;20.32;64.72;102464.72;4996238;28;20362;-79
2022/07/07 10:39:47;;;;;;;7.85;1.25;;;;;;;20.32;62.30;102466.63;4975959;28;20199;-79
2022/07/07 10:42:22;;;;;;;17.33;1.80;;;;;;;20.42;62.04;102466.22;4993303;28;20418;-79
2022/07/07 10:44:49;;;;;;;8.38;1.52;;;;;;;20.46;61.48;102473.81;4996841;28;20049;-79
2022/07/07 10:47:17;;;;;;;9.32;1.65;;;;;;;20.05;65.21;102487.59;5003081;28;20046;-79
2022/07/07 10:49:44;;;;;;;9.32;1.48;;;;;;;19.73;68.17;102496.28;4995898;28;20639;-77
2022/07/07 10:52:13;;;;;;;7.70;1.45;;;;;;;19.08;72.10;102502.97;4997022;28;20113;-77
2022/07/07 10:54:41;;;;;;;8.63;1.20;;;;;;;18.54;73.73;102496.19;4980604;28;20034;-77
2022/07/07 10:57:12;;;;;;;7.80;1.30;;;;;;;18.30;74.23;102504.72;4981110;28;20050;-78
2022/07/07 11:00:00;;;;;;;9.68;1.75;;;;;;;18.42;73.00;102504.00;4999379;28;20077;-78
2022/07/07 11:02:38;;;;;;;15.93;2.00;;;;;;;18.69;72.59;102503.44;4997900;28;20470;-78
2022/07/07 11:05:09;;;;;;;10.88;1.85;;;;;;;18.76;70.81;102515.28;4997309;28;20038;-76
2022/07/07 11:07:35;;;;;;;7.07;1.70;;;;;;;18.92;70.00;102515.00;4990459;28;20121;-75
2022/07/07 11:10:11;;;;;;;21.70;2.20;;;;;;;19.03;68.82;102516.34;4975603;28;20173;-75
2022/07/07 11:12:40;;;;;;;10.55;2.00;;;;;;;18.94;68.21;102523.84;4977346;28;20034;-75
2022/07/07 11:15:14;;;;;;;6.65;1.52;;;;;;;18.82;67.37;102522.69;4994278;28;20153;-76
2022/07/07 11:17:43;;;;;;;9.60;1.98;;;;;;;18.71;68.11;102531.38;4992759;28;20121;-75
2022/07/07 11:20:13;;;;;;;16.88;1.92;;;;;;;18.55;67.96;102530.56;4983998;28;20072;-75
2022/07/07 11:23:07;;;;;;;16.98;2.90;;;;;;;18.56;72.38;102542.31;4978781;28;20413;-75